FIMP/MRU METAR and TAF weather

Enter ICAO airport designator
Station Type Date Time Source
FIMP METAR 2020/04/04 21:00 UTC NOAA

FIMP 042100Z 13009KT 9999 BKN017 SCT050 26/22 Q1013


Station Type Date Time Source
FIMP Decoded METAR 2020/04/04 21:00 UTC NOAA

Plaisance Mauritius , Mauritius (FIMP) 20-26S 057-40E 57M
Apr 04, 2020 - 05:00 PM EDT / 2020.04.04 2100 UTC
Wind: from the SE (130 degrees) at 10 MPH (9 KT):0
Visibility: greater than 7 mile(s):0
Sky conditions: mostly cloudy
Temperature: 78 F (26 C)
Dew Point: 71 F (22 C)
Relative Humidity: 78%
Pressure (altimeter): 29.91 in. Hg (1013 hPa)
ob: FIMP 042100Z 13009KT 9999 BKN017 SCT050 26/22 Q1013
cycle: 21

Station Type Date Time Source
FIMP TAF 2020/04/04 18:46 UTC NOAA

TAF FIMP 041730Z 0418/0600 10008KT 9999 SCT016
TEMPO 0418/0500 7000 -SHRA FEW010 BKN015
BECMG 0504/0506 12015G25KT PROB30 0506/0512 7000 -SHRA FEW010 BKN015

Example: see airport list